Govan, Canada
Current Conditions -  °F | °C
As of 5:00 AM on Saturday 25 Oct 2014 (Local Time) from CYQR Reporting Station
Clear Clear  
Wind Chill: -2°   Ceiling: Unl
Heat Index: -2°   Visibility: 15mi
Dew Point: -3°   Wind: 3mph
Humidity: 93%   Direction: 250°WSW
Pressure: 30.06"   Gusts: NA
Location:  51.32°N, 105°W
Report Text: CYQR 251100Z 25003KT 15SM SKC M02/M03 A3006 RMK SLP203
Loading
Personal Weather Stations






























Interactive Weather Map
Tropical Storm Tracking
New forecast layout! Learn more

10-Day Weather Forecast

Advertisements
Track Severe Weather on mobile